PFCL

Details ICAO PFCL
Name Clarks Point
Region USA (Alaska)
Timezone America/Anchorage (UTC-8.0)
Plans Departing 2
Arriving 1
Stats Elevation 10 ft / 3 m (AMSL)
Location 58.842305° -158.545233°
Runways 1
Magnetic Variation 12.606° E
Sunrise 2018-05-22 13:51:04 UTC / 2018-05-22 05:51:04 Local
Sunset 2018-05-23 07:13:33 UTC / 2018-05-22 23:13:33 Local
Advertisement - Login to hide

Runways

ID Width Length Bearing (true) Bearing (mag) Surface Threshold Offset Overrun Length
08 85 ft / 26 m 2,602 ft / 793 m 99.99° 87.38° Gravel 0 ft / 0 m 0 ft / 0 m
26 85 ft / 26 m 2,602 ft / 793 m 280.01° 267.40° Gravel 0 ft / 0 m 0 ft / 0 m

Map

Weather


0- 5 10 15 20 25 30 35+ Temperature / ° C

Clouds and Precipitation
Forecast for 2018-05-22 18:00 UTC. Updated 5 hours ago

Ground ~20,000 ft ~40,000 ft Winds

METAR

PFCL 222156Z AUTO 16013KT 10SM CLR 09/07 A2968 RMK AO2 SLP044 T00940067 TSNO

TAF

Not found
Warning: Do not use this data for real-world aviation or navigation. No guarantee of current accuracy is given.